createdAt,value
2023-02-17T00:01:23.075Z,100108.31
2023-02-17T00:03:50.539Z,100115.44
2023-02-17T00:06:19.121Z,100107.22
2023-02-17T00:08:46.558Z,100113.28
2023-02-17T00:11:13.856Z,100107.09
2023-02-17T00:13:41.340Z,100099.25
2023-02-17T00:16:13.834Z,100107.47
2023-02-17T00:18:40.490Z,100106.38
2023-02-17T00:21:18.875Z,100103.19
2023-02-17T00:23:46.896Z,100104.25
2023-02-17T00:26:14.617Z,100108.06
2023-02-17T00:28:41.536Z,100110.56
2023-02-17T00:31:22.156Z,100092.84
2023-02-17T00:33:49.237Z,100083.19
2023-02-17T00:36:19.018Z,100077.44
2023-02-17T00:38:46.695Z,100081.38
2023-02-17T00:41:13.514Z,100079.16
2023-02-17T00:43:40.146Z,100073.16
2023-02-17T00:46:07.349Z,100073.53
2023-02-17T00:48:34.155Z,100079.94
2023-02-17T00:51:00.868Z,100067.19
2023-02-17T00:53:28.192Z,100064.59
2023-02-17T00:55:54.814Z,100056.69
2023-02-17T00:58:21.434Z,100054.81
2023-02-17T01:00:48.048Z,100055.66
2023-02-17T01:03:14.691Z,100046.81
2023-02-17T01:05:43.443Z,100041.81
2023-02-17T01:08:10.495Z,100043.97
2023-02-17T01:10:42.222Z,100042.53
2023-02-17T01:13:10.030Z,100044.94
2023-02-17T01:15:48.995Z,100044.94
2023-02-17T01:18:16.424Z,100050.19
2023-02-17T01:20:43.619Z,100043.53
2023-02-17T01:23:12.217Z,100038.78
2023-02-17T01:25:43.552Z,100048.41
2023-02-17T01:28:15.745Z,100060.44
2023-02-17T01:30:42.560Z,100055.78
2023-02-17T01:33:09.490Z,100058.16
2023-02-17T01:35:36.144Z,100059.63
2023-02-17T01:38:02.852Z,100063.44
2023-02-17T01:40:30.255Z,100061.03
2023-02-17T01:42:57.017Z,100074.13
2023-02-17T01:45:23.573Z,100070.31
2023-02-17T01:47:52.804Z,100074.38
2023-02-17T01:50:22.590Z,100076.50
2023-02-17T01:52:50.431Z,100084.97
2023-02-17T01:55:19.800Z,100085.44
2023-02-17T01:57:48.464Z,100088.06
2023-02-17T02:00:17.566Z,100080.81
2023-02-17T02:02:47.645Z,100103.75
2023-02-17T02:05:15.239Z,100108.19
2023-02-17T02:07:44.290Z,100107.09
2023-02-17T02:10:13.421Z,100110.41
2023-02-17T02:12:42.080Z,100103.66
2023-02-17T02:15:22.770Z,100109.72
2023-02-17T02:18:46.768Z,100110.31
2023-02-17T02:21:31.769Z,100127.13
2023-02-17T02:24:35.111Z,100125.31
2023-02-17T02:27:48.355Z,100132.22
2023-02-17T02:30:21.449Z,100126.28
2023-02-17T02:33:00.097Z,100111.50
2023-02-17T02:35:55.405Z,100111.03
2023-02-17T02:38:24.707Z,100102.94
2023-02-17T02:40:57.967Z,100103.53
2023-02-17T02:43:25.217Z,100099.22
2023-02-17T02:45:52.006Z,100092.44
2023-02-17T02:48:18.678Z,100099.84
2023-02-17T02:51:09.729Z,100092.81
2023-02-17T02:53:59.584Z,100070.91
2023-02-17T02:56:54.186Z,100067.06
2023-02-17T02:59:56.701Z,100071.25
2023-02-17T03:02:42.795Z,100058.97
2023-02-17T03:05:27.835Z,100064.44
2023-02-17T03:08:12.110Z,100061.97
2023-02-17T03:10:51.233Z,100067.78
2023-02-17T03:13:19.404Z,100063.16
2023-02-17T03:15:47.025Z,100067.78
2023-02-17T03:18:14.203Z,100068.13
2023-02-17T03:20:55.009Z,100064.06
2023-02-17T03:23:21.690Z,100069.31
2023-02-17T03:25:48.545Z,100064.66
2023-02-17T03:28:15.422Z,100075.16
2023-02-17T03:30:42.194Z,100052.97
2023-02-17T03:33:09.240Z,100056.31
2023-02-17T03:35:35.888Z,100047.25
2023-02-17T03:38:02.993Z,100037.97
2023-02-17T03:40:29.872Z,100036.63
2023-02-17T03:42:57.809Z,100027.81
2023-02-17T03:45:26.086Z,100028.19
2023-02-17T03:47:52.725Z,100035.56
2023-02-17T03:50:19.321Z,100029.84
2023-02-17T03:52:46.405Z,100010.66
2023-02-17T03:55:13.574Z,100011.13
2023-02-17T03:57:40.238Z,100005.66
2023-02-17T04:00:08.200Z,100007.47
2023-02-17T04:02:34.928Z,100017.03
2023-02-17T04:05:01.580Z,100013.19
2023-02-17T04:07:28.194Z,100022.81
2023-02-17T04:09:54.849Z,100021.53
2023-02-17T04:12:21.472Z,100021.03
2023-02-17T04:14:48.093Z,100007.91
2023-02-17T04:17:14.728Z,100006.59
2023-02-17T04:19:41.353Z,99992.31
2023-02-17T04:22:09.067Z,99990.63
2023-02-17T04:24:38.714Z,99998.59
2023-02-17T04:27:05.554Z,99989.31
2023-02-17T04:29:33.647Z,99985.16
2023-02-17T04:32:00.387Z,99988.16
2023-02-17T04:34:27.227Z,99974.94
2023-02-17T04:36:53.861Z,99969.94
2023-02-17T04:39:20.617Z,99967.19
2023-02-17T04:41:47.289Z,99964.34
2023-02-17T04:44:13.936Z,99971.50
2023-02-17T04:46:40.534Z,99966.00
2023-02-17T04:49:07.225Z,99965.19
2023-02-17T04:51:33.828Z,99966.25
2023-02-17T04:54:00.436Z,99972.00
2023-02-17T04:56:27.076Z,99962.09
2023-02-17T04:58:53.704Z,99971.03
2023-02-17T05:01:20.591Z,99968.31
2023-02-17T05:03:47.264Z,99954.59
2023-02-17T05:06:13.882Z,99955.22
2023-02-17T05:08:40.539Z,99952.84
2023-02-17T05:11:07.144Z,99952.28
2023-02-17T05:13:33.763Z,99951.41
2023-02-17T05:16:00.400Z,99958.50
2023-02-17T05:18:27.072Z,99946.34
2023-02-17T05:20:53.654Z,99940.03
2023-02-17T05:23:20.270Z,99950.13
2023-02-17T05:25:46.884Z,99943.72
2023-02-17T05:28:13.514Z,99963.47
2023-02-17T05:30:40.181Z,99937.25
2023-02-17T05:33:06.773Z,99932.38
2023-02-17T05:35:35.330Z,99920.59
2023-02-17T05:38:01.999Z,99913.78
2023-02-17T05:40:28.654Z,99924.16
2023-02-17T05:42:55.271Z,99919.50
2023-02-17T05:45:21.939Z,99919.50
2023-02-17T05:47:48.515Z,99921.63
2023-02-17T05:50:15.171Z,99922.16
2023-02-17T05:52:41.888Z,99925.22
2023-02-17T05:55:08.897Z,99937.25
2023-02-17T05:57:35.584Z,99944.97
2023-02-17T06:00:02.529Z,99951.53
2023-02-17T06:02:29.156Z,99964.16
2023-02-17T06:04:55.834Z,99976.31
2023-02-17T06:07:22.554Z,99987.84
2023-02-17T06:09:49.142Z,99992.59
2023-02-17T06:12:15.828Z,99980.31
2023-02-17T06:14:42.889Z,99978.16
2023-02-17T06:17:10.265Z,99974.84
2023-02-17T06:19:36.870Z,99976.00
2023-02-17T06:22:03.621Z,99976.59
2023-02-17T06:24:30.205Z,99977.19
2023-02-17T06:26:56.876Z,99967.06
2023-02-17T06:29:23.515Z,99974.47
2023-02-17T06:31:50.140Z,99987.91
2023-02-17T06:34:16.847Z,99993.97
2023-02-17T06:36:43.423Z,99986.91
2023-02-17T06:39:10.169Z,99995.97
2023-02-17T06:41:36.804Z,100007.03
2023-02-17T06:44:03.495Z,100010.63
2023-02-17T06:46:30.451Z,100016.94
2023-02-17T06:48:57.118Z,99999.66
2023-02-17T06:51:23.741Z,100002.63
2023-02-17T06:53:50.352Z,99996.56
2023-02-17T06:56:16.980Z,100011.09
2023-02-17T06:58:43.580Z,100008.09
2023-02-17T07:01:30.604Z,100014.09
2023-02-17T07:03:57.450Z,100028.38
2023-02-17T07:06:25.115Z,100031.13
2023-02-17T07:08:52.488Z,100031.03
2023-02-17T07:11:19.983Z,100027.19
2023-02-17T07:13:47.614Z,100047.13
2023-02-17T07:16:14.960Z,100048.44
2023-02-17T07:18:42.279Z,100060.56
2023-02-17T07:21:09.963Z,100058.44
2023-02-17T07:23:38.246Z,100062.34
2023-02-17T07:26:07.173Z,100062.94
2023-02-17T07:28:34.114Z,100064.25
2023-02-17T07:31:12.354Z,100063.44
2023-02-17T07:33:39.678Z,100056.63
2023-02-17T07:36:08.729Z,100047.47
2023-02-17T07:38:35.961Z,100049.03
2023-02-17T07:41:07.645Z,100059.41
2023-02-17T07:43:34.331Z,100043.28
2023-02-17T07:46:01.002Z,100056.25
2023-02-17T07:48:27.654Z,100058.28
2023-02-17T07:50:54.738Z,100053.16
2023-02-17T07:53:21.468Z,100043.84
2023-02-17T07:55:48.193Z,100046.34
2023-02-17T07:58:15.027Z,100031.81
2023-02-17T08:00:41.622Z,100038.34
2023-02-17T08:03:10.761Z,100042.19
2023-02-17T08:05:40.841Z,100050.16
2023-02-17T08:08:27.262Z,100053.97
2023-02-17T08:11:12.715Z,100043.63
2023-02-17T08:13:39.345Z,100064.47
2023-02-17T08:16:06.512Z,100063.16
2023-02-17T08:18:36.527Z,100048.94
2023-02-17T08:21:03.868Z,100082.19
2023-02-17T08:23:30.673Z,100070.50
2023-02-17T08:25:59.228Z,100074.84
2023-02-17T08:28:25.867Z,100074.72
2023-02-17T08:30:52.695Z,100080.91
2023-02-17T08:33:19.444Z,100082.66
2023-02-17T08:35:46.282Z,100082.16
2023-02-17T08:38:13.477Z,100082.75
2023-02-17T08:40:40.206Z,100085.56
2023-02-17T08:43:10.139Z,100102.63
2023-02-17T08:45:37.735Z,100103.22
2023-02-17T08:48:05.271Z,100103.81
2023-02-17T08:50:33.613Z,100097.81
2023-02-17T08:53:00.240Z,100092.66
2023-02-17T08:55:26.853Z,100094.09
2023-02-17T08:57:54.039Z,100095.75
2023-02-17T09:00:20.925Z,100095.34
2023-02-17T09:02:47.641Z,100083.03
2023-02-17T09:05:16.386Z,100089.69
2023-02-17T09:07:43.183Z,100079.03
2023-02-17T09:10:11.046Z,100083.22
2023-02-17T09:12:37.874Z,100101.44
2023-02-17T09:15:05.154Z,100094.44
2023-02-17T09:17:31.810Z,100103.91
2023-02-17T09:19:58.625Z,100100.91
2023-02-17T09:22:32.085Z,100115.25
2023-02-17T09:24:59.251Z,100104.06
2023-02-17T09:27:26.022Z,100107.72
2023-02-17T09:29:55.457Z,100113.00
2023-02-17T09:32:22.239Z,100121.88
2023-02-17T09:34:52.911Z,100108.06
2023-02-17T09:37:20.662Z,100109.16
2023-02-17T09:39:48.489Z,100121.56
2023-02-17T09:42:26.524Z,100127.88
2023-02-17T09:44:57.137Z,100126.31
2023-02-17T09:47:29.505Z,100122.03
2023-02-17T09:50:22.305Z,100119.69
2023-02-17T09:52:59.341Z,100112.50
2023-02-17T09:55:31.564Z,100111.75
2023-02-17T09:58:07.374Z,100112.69
2023-02-17T10:00:58.568Z,100104.66
2023-02-17T10:03:32.577Z,100100.53
2023-02-17T10:06:28.559Z,100109.84
2023-02-17T10:08:58.521Z,100110.38
2023-02-17T10:11:31.958Z,100120.19
2023-02-17T10:14:03.321Z,100107.84
2023-02-17T10:16:38.588Z,100111.69
2023-02-17T10:19:12.978Z,100110.38
2023-02-17T10:21:53.298Z,100129.34
2023-02-17T10:24:20.050Z,100112.16
2023-02-17T10:27:01.258Z,100100.31
2023-02-17T10:29:36.919Z,100111.97
2023-02-17T10:32:22.306Z,100088.91
2023-02-17T10:35:03.508Z,100084.31
2023-02-17T10:37:50.185Z,100096.28
2023-02-17T10:40:23.455Z,100106.59
2023-02-17T10:43:05.567Z,100117.06
2023-02-17T10:45:45.408Z,100116.09
2023-02-17T10:48:24.544Z,100107.41
2023-02-17T10:50:51.799Z,100107.69
2023-02-17T10:53:25.201Z,100099.75
2023-02-17T10:56:05.330Z,100116.91
2023-02-17T10:58:50.526Z,100122.19
2023-02-17T11:01:17.863Z,100122.56
2023-02-17T11:03:46.455Z,100118.16
2023-02-17T11:06:24.351Z,100137.75
2023-02-17T11:08:56.168Z,100145.75
2023-02-17T11:11:29.397Z,100139.13
2023-02-17T11:14:19.318Z,100132.63
2023-02-17T11:16:51.894Z,100134.59
2023-02-17T11:19:34.006Z,100125.28
2023-02-17T11:22:03.667Z,100134.38
2023-02-17T11:24:32.953Z,100137.16
2023-02-17T11:27:00.896Z,100130.88
2023-02-17T11:29:29.137Z,100129.56
2023-02-17T11:32:12.390Z,100138.66
2023-02-17T11:34:42.177Z,100129.94
2023-02-17T11:37:11.685Z,100135.41
2023-02-17T11:39:44.553Z,100136.00
2023-02-17T11:42:37.667Z,100145.13
2023-02-17T11:45:41.650Z,100135.25
2023-02-17T11:48:47.172Z,100158.97
2023-02-17T11:51:45.131Z,100146.91
2023-02-17T11:54:53.278Z,100142.03
2023-02-17T11:57:39.610Z,100133.25
2023-02-17T12:00:22.979Z,100125.81
2023-02-17T12:03:04.964Z,100163.88
2023-02-17T12:06:03.947Z,100166.63
2023-02-17T12:08:53.673Z,100167.41
2023-02-17T12:12:12.693Z,100166.88
2023-02-17T12:14:57.443Z,100194.44
2023-02-17T12:17:26.935Z,100186.19
2023-02-17T12:19:59.084Z,100185.66
2023-02-17T12:23:08.067Z,100195.06
2023-02-17T12:25:53.303Z,100189.59
2023-02-17T12:28:46.469Z,100196.00
2023-02-17T12:31:31.545Z,100187.97
2023-02-17T12:34:15.350Z,100180.28
2023-02-17T12:36:43.146Z,100185.78
2023-02-17T12:39:18.983Z,100195.16
2023-02-17T12:41:53.394Z,100183.59
2023-02-17T12:44:28.425Z,100194.88
2023-02-17T12:47:03.738Z,100197.31
2023-02-17T12:49:37.468Z,100215.50
2023-02-17T12:52:06.180Z,100191.75
2023-02-17T12:54:43.590Z,100194.72
2023-02-17T12:57:10.252Z,100206.38
2023-02-17T12:59:41.372Z,100193.94
2023-02-17T13:02:13.866Z,100193.19
2023-02-17T13:04:42.788Z,100192.97
2023-02-17T13:07:46.976Z,100198.00
2023-02-17T13:10:29.299Z,100203.81
2023-02-17T13:13:09.795Z,100219.81
2023-02-17T13:15:45.836Z,100223.66
2023-02-17T13:18:30.431Z,100237.72
2023-02-17T13:21:14.876Z,100217.31
2023-02-17T13:23:44.271Z,100233.03
2023-02-17T13:26:21.338Z,100245.53
2023-02-17T13:28:50.764Z,100248.59
2023-02-17T13:31:19.051Z,100249.47
2023-02-17T13:33:50.645Z,100257.47
2023-02-17T13:36:20.707Z,100253.28
2023-02-17T13:39:00.491Z,100259.09
2023-02-17T13:41:28.970Z,100241.72
2023-02-17T13:43:55.884Z,100259.38
2023-02-17T13:46:26.487Z,100255.53
2023-02-17T13:49:05.095Z,100269.28
2023-02-17T13:51:33.557Z,100262.16
2023-02-17T13:54:08.719Z,100274.03
2023-02-17T13:56:35.369Z,100277.03
2023-02-17T13:59:18.041Z,100281.19
2023-02-17T14:01:46.530Z,100298.88
2023-02-17T14:04:30.802Z,100304.09
2023-02-17T14:07:00.231Z,100308.81
2023-02-17T14:09:32.563Z,100312.94
2023-02-17T14:12:02.897Z,100308.78
2023-02-17T14:14:32.880Z,100317.91
2023-02-17T14:16:59.509Z,100331.22
2023-02-17T14:19:26.180Z,100334.56
2023-02-17T14:22:04.253Z,100329.09
2023-02-17T14:24:34.104Z,100339.84
2023-02-17T14:27:08.841Z,100343.44
2023-02-17T14:29:43.576Z,100342.97
2023-02-17T14:32:36.656Z,100342.97
2023-02-17T14:35:10.537Z,100339.41
2023-02-17T14:37:37.922Z,100350.44
2023-02-17T14:40:07.237Z,100341.38
2023-02-17T14:42:33.859Z,100348.78
2023-02-17T14:45:00.511Z,100359.00
2023-02-17T14:47:27.132Z,100364.53
2023-02-17T14:49:53.782Z,100368.94
2023-02-17T14:52:23.839Z,100375.56
2023-02-17T14:54:51.102Z,100375.78
2023-02-17T14:57:24.012Z,100381.56
2023-02-17T14:59:50.720Z,100384.88
2023-02-17T15:02:20.591Z,100382.34
2023-02-17T15:04:47.337Z,100381.22
2023-02-17T15:07:18.449Z,100391.06
2023-02-17T15:09:47.923Z,100392.91
2023-02-17T15:12:18.568Z,100387.59
2023-02-17T15:14:47.125Z,100382.59
2023-02-17T15:17:15.352Z,100380.22
2023-02-17T15:19:44.827Z,100381.56
2023-02-17T15:22:13.527Z,100388.69
2023-02-17T15:24:40.644Z,100381.47
2023-02-17T15:27:07.359Z,100381.47
2023-02-17T15:29:34.001Z,100378.44
2023-02-17T15:32:03.992Z,100381.47
2023-02-17T15:34:36.350Z,100383.59
2023-02-17T15:37:03.088Z,100394.06
2023-02-17T15:39:29.707Z,100398.41
2023-02-17T15:42:11.592Z,100402.50
2023-02-17T15:44:47.597Z,100399.38
2023-02-17T15:47:18.526Z,100392.47
2023-02-17T15:49:46.115Z,100395.63
2023-02-17T15:52:13.669Z,100407.75
2023-02-17T15:54:42.650Z,100414.88
2023-02-17T15:57:20.980Z,100408.31
2023-02-17T15:59:48.101Z,100417.84
2023-02-17T16:02:24.231Z,100422.47
2023-02-17T16:04:50.837Z,100414.72
2023-02-17T16:07:17.628Z,100425.44
2023-02-17T16:09:44.335Z,100423.50
2023-02-17T16:12:17.980Z,100421.50
2023-02-17T16:14:45.201Z,100426.44
2023-02-17T16:17:16.064Z,100427.06
2023-02-17T16:19:42.904Z,100426.78
2023-02-17T16:22:09.681Z,100435.72
2023-02-17T16:24:36.402Z,100427.47
2023-02-17T16:27:03.303Z,100438.69
2023-02-17T16:29:30.041Z,100448.41
2023-02-17T16:31:56.824Z,100439.78
2023-02-17T16:34:25.767Z,100459.53
2023-02-17T16:37:00.548Z,100457.28
2023-02-17T16:39:27.292Z,100464.13
2023-02-17T16:41:54.012Z,100465.38
2023-02-17T16:44:22.638Z,100470.06
2023-02-17T16:46:52.030Z,100465.56
2023-02-17T16:49:35.984Z,100457.44
2023-02-17T16:52:18.674Z,100470.63
2023-02-17T16:54:45.298Z,100473.38
2023-02-17T16:57:21.229Z,100482.97
2023-02-17T16:59:48.238Z,100476.53
2023-02-17T17:02:15.013Z,100478.19
2023-02-17T17:04:41.754Z,100484.19
2023-02-17T17:07:13.406Z,100483.63
2023-02-17T17:09:40.354Z,100479.44
2023-02-17T17:12:07.650Z,100477.50
2023-02-17T17:14:34.295Z,100482.44
2023-02-17T17:17:01.981Z,100480.69
2023-02-17T17:19:28.667Z,100480.00
2023-02-17T17:21:55.357Z,100487.31
2023-02-17T17:24:22.125Z,100486.13
2023-02-17T17:26:51.296Z,100490.47
2023-02-17T17:29:19.580Z,100490.91
2023-02-17T17:31:46.587Z,100497.16
2023-02-17T17:34:13.416Z,100491.66
2023-02-17T17:36:43.209Z,100504.44
2023-02-17T17:39:16.771Z,100503.94
2023-02-17T17:41:45.180Z,100511.63
2023-02-17T17:44:11.804Z,100500.00
2023-02-17T17:46:39.308Z,100503.13
2023-02-17T17:49:10.207Z,100502.28
2023-02-17T17:51:38.157Z,100503.13
2023-02-17T17:54:06.135Z,100505.88
2023-02-17T17:56:36.630Z,100503.38
2023-02-17T17:59:03.910Z,100509.94
2023-02-17T18:01:31.118Z,100503.38
2023-02-17T18:03:59.547Z,100502.75
2023-02-17T18:06:30.046Z,100506.56
2023-02-17T18:09:02.648Z,100507.78
2023-02-17T18:11:29.892Z,100510.78
2023-02-17T18:14:00.608Z,100502.28
2023-02-17T18:16:28.854Z,100507.78
2023-02-17T18:18:56.539Z,100500.63
2023-02-17T18:21:23.505Z,100506.69
2023-02-17T18:23:50.105Z,100506.13
2023-02-17T18:26:17.251Z,100509.44
2023-02-17T18:28:45.063Z,100510.53
2023-02-17T18:31:13.483Z,100512.47
2023-02-17T18:33:40.548Z,100516.50
2023-02-17T18:36:12.923Z,100512.69
2023-02-17T18:38:39.590Z,100504.91
2023-02-17T18:41:07.320Z,100516.50
2023-02-17T18:43:34.702Z,100504.66
2023-02-17T18:46:01.375Z,100506.13
2023-02-17T18:48:28.106Z,100496.78
2023-02-17T18:50:54.733Z,100509.22
2023-02-17T18:53:21.533Z,100507.31
2023-02-17T18:55:48.192Z,100519.41
2023-02-17T18:58:14.856Z,100513.91
2023-02-17T19:00:41.562Z,100512.19
2023-02-17T19:03:08.496Z,100511.63
2023-02-17T19:05:35.172Z,100518.19
2023-02-17T19:08:01.849Z,100517.97
2023-02-17T19:10:28.518Z,100512.06
2023-02-17T19:12:55.196Z,100519.41
2023-02-17T19:15:21.927Z,100513.06
2023-02-17T19:17:48.936Z,100516.91
2023-02-17T19:20:17.213Z,100510.56
2023-02-17T19:22:44.055Z,100510.78
2023-02-17T19:25:11.481Z,100511.88
2023-02-17T19:27:40.988Z,100506.84
2023-02-17T19:30:09.760Z,100507.38
2023-02-17T19:32:36.779Z,100499.13
2023-02-17T19:35:04.497Z,100506.75
2023-02-17T19:37:31.248Z,100496.84
2023-02-17T19:39:57.897Z,100492.91
2023-02-17T19:42:24.727Z,100499.16
2023-02-17T19:44:51.468Z,100510.97
2023-02-17T19:47:18.177Z,100501.31
2023-02-17T19:49:44.832Z,100497.97
2023-02-17T19:52:11.685Z,100491.97
2023-02-17T19:54:38.330Z,100504.78
2023-02-17T19:57:04.997Z,100497.59
2023-02-17T19:59:33.799Z,100492.59
2023-02-17T20:02:00.697Z,100486.03
2023-02-17T20:04:27.525Z,100487.22
2023-02-17T20:06:54.306Z,100480.06
2023-02-17T20:09:22.282Z,100498.72
2023-02-17T20:11:53.105Z,100484.38
2023-02-17T20:14:21.465Z,100473.66
2023-02-17T20:16:48.636Z,100486.78
2023-02-17T20:19:16.288Z,100490.84
2023-02-17T20:21:44.936Z,100494.69
2023-02-17T20:24:14.152Z,100490.13
2023-02-17T20:26:44.489Z,100488.22
2023-02-17T20:29:13.055Z,100479.97
2023-02-17T20:31:41.294Z,100480.81
2023-02-17T20:34:15.760Z,100478.31
2023-02-17T20:36:42.373Z,100471.75
2023-02-17T20:39:09.015Z,100475.09
2023-02-17T20:41:35.627Z,100469.09
2023-02-17T20:44:04.190Z,100458.84
2023-02-17T20:46:31.278Z,100457.78
2023-02-17T20:48:57.988Z,100456.34
2023-02-17T20:51:24.934Z,100461.16
2023-02-17T20:53:52.204Z,100463.38
2023-02-17T20:56:21.826Z,100464.94
2023-02-17T20:58:48.813Z,100455.50
2023-02-17T21:01:15.980Z,100461.63
2023-02-17T21:03:42.991Z,100446.81
2023-02-17T21:06:23.425Z,100431.88
2023-02-17T21:08:52.564Z,100418.66
2023-02-17T21:11:19.597Z,100419.03
2023-02-17T21:13:47.639Z,100424.16
2023-02-17T21:16:17.001Z,100430.38
2023-02-17T21:18:46.858Z,100429.53
2023-02-17T21:21:14.431Z,100421.31
2023-02-17T21:23:41.075Z,100411.63
2023-02-17T21:26:09.663Z,100424.16
2023-02-17T21:28:37.010Z,100414.25
2023-02-17T21:31:04.097Z,100403.75
2023-02-17T21:33:31.168Z,100419.63
2023-02-17T21:35:57.888Z,100417.34
2023-02-17T21:38:24.770Z,100419.06
2023-02-17T21:40:51.566Z,100419.28
2023-02-17T21:43:37.750Z,100404.13
2023-02-17T21:46:09.801Z,100414.28
2023-02-17T21:48:38.409Z,100405.91
2023-02-17T21:51:10.833Z,100410.56
2023-02-17T21:53:37.665Z,100413.81
2023-02-17T21:56:05.489Z,100405.06
2023-02-17T21:58:32.485Z,100415.09
2023-02-17T22:00:59.390Z,100418.09
2023-02-17T22:03:26.346Z,100415.94
2023-02-17T22:05:53.118Z,100431.56
2023-02-17T22:08:20.046Z,100421.06
2023-02-17T22:10:46.714Z,100441.59
2023-02-17T22:13:13.341Z,100438.03
2023-02-17T22:15:40.044Z,100442.44
2023-02-17T22:18:06.740Z,100432.28
2023-02-17T22:20:33.680Z,100431.09
2023-02-17T22:23:00.369Z,100425.38
2023-02-17T22:25:27.106Z,100423.09
2023-02-17T22:27:53.712Z,100417.25
2023-02-17T22:30:20.413Z,100421.53
2023-02-17T22:32:47.072Z,100412.72
2023-02-17T22:35:14.226Z,100417.59
2023-02-17T22:37:40.839Z,100407.34
2023-02-17T22:40:09.117Z,100411.16
2023-02-17T22:42:35.720Z,100410.75
2023-02-17T22:45:02.390Z,100408.63
2023-02-17T22:47:29.088Z,100417.06
2023-02-17T22:49:55.744Z,100408.84
2023-02-17T22:52:22.524Z,100411.25
2023-02-17T22:54:49.153Z,100411.25
2023-02-17T22:57:15.759Z,100416.13
2023-02-17T22:59:42.412Z,100414.22
2023-02-17T23:02:09.052Z,100405.16
2023-02-17T23:04:35.756Z,100407.66
2023-02-17T23:07:02.484Z,100399.66
2023-02-17T23:09:29.080Z,100405.97
2023-02-17T23:11:57.712Z,100406.22
2023-02-17T23:14:37.362Z,100404.91
2023-02-17T23:17:09.524Z,100408.25
2023-02-17T23:19:37.236Z,100398.59
2023-02-17T23:22:08.405Z,100390.84
2023-02-17T23:24:35.193Z,100394.44
2023-02-17T23:27:02.168Z,100402.66
2023-02-17T23:29:30.772Z,100402.88
2023-02-17T23:31:58.174Z,100389.03
2023-02-17T23:34:25.171Z,100387.84
2023-02-17T23:36:51.832Z,100384.88
2023-02-17T23:39:18.483Z,100382.97
2023-02-17T23:41:45.237Z,100391.19
2023-02-17T23:44:13.821Z,100378.19
2023-02-17T23:46:41.818Z,100388.22
2023-02-17T23:49:08.912Z,100378.31
2023-02-17T23:51:36.728Z,100376.88
2023-02-17T23:54:03.544Z,100374.63
2023-02-17T23:56:35.125Z,100375.44
2023-02-17T23:59:02.263Z,100382.00
